Time;durP1;ratioP1;P1;durP2;ratioP2;P2;SDS_P1;SDS_P2;PMS_P1;PMS_P2;Temp;Humidity;BMP_temperature;BMP_pressure;BME280_temperature;BME280_humidity;BME280_pressure;Samples;Min_cycle;Max_cycle;Signal;HPM_P1;HPM_P2
2022/03/07 00:01:51;;;;;;;11.38;6.50;;;-2.60;99.90;;;;;;7363916;32;20517;-61
2022/03/07 00:05:53;;;;;;;12.63;6.68;;;-2.50;99.90;;;;;;7353701;32;20484;-59
2022/03/07 00:09:55;;;;;;;10.77;6.78;;;-2.60;99.90;;;;;;7362066;32;20517;-59
2022/03/07 00:13:57;;;;;;;11.18;7.15;;;-2.60;99.90;;;;;;7358645;32;20110;-59
2022/03/07 00:17:58;;;;;;;10.73;6.80;;;-2.60;99.90;;;;;;7355830;32;20717;-59
2022/03/07 00:22:00;;;;;;;11.45;7.45;;;-2.70;99.90;;;;;;7360594;32;20129;-58
2022/03/07 00:26:03;;;;;;;10.65;7.05;;;-2.70;99.90;;;;;;7358688;32;20121;-59
2022/03/07 00:30:15;;;;;;;11.02;6.95;;;-2.70;99.90;;;;;;7359208;32;20107;-59
2022/03/07 00:34:18;;;;;;;10.43;6.75;;;-2.60;99.90;;;;;;7361037;32;20214;-60
2022/03/07 00:38:19;;;;;;;12.80;7.30;;;-2.60;99.90;;;;;;7358515;32;21001;-61
2022/03/07 00:42:21;;;;;;;10.68;7.62;;;-2.60;99.90;;;;;;7350304;32;20759;-62
2022/03/07 00:46:23;;;;;;;10.35;7.20;;;-2.50;99.90;;;;;;7353645;32;20248;-61
2022/03/07 00:50:24;;;;;;;12.65;7.22;;;-2.40;99.90;;;;;;7358291;32;20222;-61
2022/03/07 00:54:26;;;;;;;11.15;6.85;;;-2.40;99.90;;;;;;7360529;32;20489;-60
2022/03/07 00:58:28;;;;;;;10.82;6.75;;;-2.40;99.90;;;;;;7351957;32;20111;-60
2022/03/07 01:02:30;;;;;;;11.98;6.97;;;-2.30;99.90;;;;;;7355661;32;20218;-60
2022/03/07 01:06:32;;;;;;;13.25;7.18;;;-2.30;99.90;;;;;;7357302;32;20546;-60
2022/03/07 01:10:34;;;;;;;11.43;6.55;;;-2.30;99.90;;;;;;7357367;32;20166;-60
2022/03/07 01:14:36;;;;;;;16.80;7.12;;;-2.30;99.90;;;;;;7363322;32;20348;-60
2022/03/07 01:18:38;;;;;;;11.45;6.95;;;-2.30;99.90;;;;;;7359485;32;20320;-60
2022/03/07 01:22:43;;;;;;;10.68;6.22;;;-2.30;99.90;;;;;;7360627;32;20190;-60
2022/03/07 01:26:46;;;;;;;12.93;7.60;;;-2.40;99.90;;;;;;7355300;32;20577;-60
2022/03/07 01:30:48;;;;;;;13.35;7.37;;;-2.40;99.90;;;;;;7365086;32;20103;-60
2022/03/07 01:34:50;;;;;;;13.73;7.25;;;-2.30;99.90;;;;;;7352772;32;20459;-60
2022/03/07 01:38:52;;;;;;;15.60;7.72;;;-2.20;99.90;;;;;;7363145;32;20631;-60
2022/03/07 01:42:53;;;;;;;13.13;7.28;;;-2.20;99.90;;;;;;7360996;32;20102;-60
2022/03/07 01:46:57;;;;;;;10.73;7.37;;;-2.30;99.90;;;;;;7362719;32;20106;-58
2022/03/07 01:51:01;;;;;;;13.70;7.75;;;-2.30;99.90;;;;;;7363347;32;20099;-59
2022/03/07 01:55:04;;;;;;;9.75;6.70;;;-2.20;99.90;;;;;;7361424;32;20119;-59
2022/03/07 01:59:11;;;;;;;12.00;7.53;;;-2.20;99.90;;;;;;7358587;32;20106;-59
2022/03/07 02:03:13;;;;;;;11.63;7.05;;;-2.20;99.90;;;;;;7357161;32;20530;-58
2022/03/07 02:07:15;;;;;;;12.85;7.68;;;-2.20;99.90;;;;;;7356721;32;20240;-59
2022/03/07 02:11:17;;;;;;;13.15;7.22;;;-2.20;99.90;;;;;;7359603;32;20550;-59
2022/03/07 02:15:19;;;;;;;10.68;6.90;;;-2.20;99.90;;;;;;7355408;32;20905;-59
2022/03/07 02:19:49;;;;;;;13.43;7.20;;;-2.20;99.90;;;;;;7354960;32;20798;-59
2022/03/07 02:23:50;;;;;;;13.00;7.12;;;-2.20;99.90;;;;;;7350276;32;20493;-59
2022/03/07 02:27:52;;;;;;;11.12;7.40;;;-2.10;99.90;;;;;;7356889;32;20144;-59
2022/03/07 02:31:54;;;;;;;13.50;7.95;;;-2.00;99.90;;;;;;7353103;32;20107;-58
2022/03/07 02:35:56;;;;;;;12.25;7.93;;;-2.10;99.90;;;;;;7352660;32;20225;-59
2022/03/07 02:40:01;;;;;;;16.58;8.38;;;-2.10;99.90;;;;;;7358164;32;20132;-59
2022/03/07 02:44:13;;;;;;;11.20;7.35;;;-2.10;99.90;;;;;;7357250;32;20155;-58
2022/03/07 02:48:18;;;;;;;13.10;7.53;;;-2.10;99.90;;;;;;7356146;32;20224;-59
2022/03/07 02:52:20;;;;;;;14.95;8.57;;;-2.00;99.90;;;;;;7350322;32;20103;-59
2022/03/07 02:56:21;;;;;;;11.38;8.38;;;-2.00;99.90;;;;;;7355230;32;20484;-59
2022/03/07 03:00:23;;;;;;;11.73;7.62;;;-1.90;99.90;;;;;;7352411;32;20618;-59
2022/03/07 03:04:25;;;;;;;17.60;8.93;;;-2.00;99.90;;;;;;7356121;32;20121;-59
2022/03/07 03:08:27;;;;;;;13.13;8.57;;;-1.90;99.90;;;;;;7357049;32;20197;-59
2022/03/07 03:12:29;;;;;;;14.40;9.18;;;-1.90;99.90;;;;;;7355310;32;20116;-59
2022/03/07 03:16:30;;;;;;;13.32;8.18;;;-1.90;99.90;;;;;;7353674;32;20145;-59
2022/03/07 03:20:32;;;;;;;12.32;8.50;;;-1.90;99.90;;;;;;7355910;32;20203;-58
2022/03/07 03:24:34;;;;;;;11.15;8.20;;;-1.90;99.90;;;;;;7363624;32;20099;-58
2022/03/07 03:28:36;;;;;;;16.70;8.45;;;-1.80;99.90;;;;;;7362798;32;20130;-58
2022/03/07 03:32:38;;;;;;;15.88;9.65;;;-1.80;99.90;;;;;;7352896;32;20124;-59
2022/03/07 03:36:40;;;;;;;13.70;9.48;;;-1.80;99.90;;;;;;7365214;32;20217;-58
2022/03/07 03:40:42;;;;;;;16.90;9.48;;;-1.70;99.90;;;;;;7361350;32;20589;-58
2022/03/07 03:44:44;;;;;;;14.13;9.07;;;-1.70;99.90;;;;;;7358196;32;20131;-59
2022/03/07 03:48:46;;;;;;;12.23;9.05;;;-1.60;99.90;;;;;;7356137;32;20377;-58
2022/03/07 03:52:48;;;;;;;15.63;9.20;;;-1.50;99.90;;;;;;7353328;32;20153;-58
2022/03/07 03:56:50;;;;;;;16.08;10.60;;;-1.50;99.90;;;;;;7348298;32;20115;-58
2022/03/07 04:00:53;;;;;;;13.82;9.35;;;-1.50;99.90;;;;;;7361523;32;20322;-59
2022/03/07 04:04:56;;;;;;;17.85;9.90;;;-1.50;99.90;;;;;;7354182;32;20703;-59
2022/03/07 04:09:00;;;;;;;17.42;9.68;;;-1.40;99.90;;;;;;7356509;32;20252;-59
2022/03/07 04:13:02;;;;;;;18.08;10.82;;;-1.30;99.90;;;;;;7356669;32;20122;-58
2022/03/07 04:17:04;;;;;;;18.33;10.63;;;-1.30;99.90;;;;;;7359365;32;20220;-59
2022/03/07 04:21:06;;;;;;;15.75;10.50;;;-1.20;99.90;;;;;;7357899;32;20474;-59
2022/03/07 04:25:08;;;;;;;17.55;10.75;;;-1.20;99.90;;;;;;7361191;32;20197;-60
2022/03/07 04:29:10;;;;;;;15.95;9.98;;;-1.20;99.90;;;;;;7353774;32;20289;-59
2022/03/07 04:33:12;;;;;;;18.30;10.57;;;-1.10;99.90;;;;;;7347535;32;20583;-58
2022/03/07 04:37:14;;;;;;;18.00;10.88;;;-1.10;99.90;;;;;;7357066;32;20474;-59
2022/03/07 04:41:16;;;;;;;16.27;9.25;;;-1.20;99.90;;;;;;7351734;32;20099;-59
2022/03/07 04:45:18;;;;;;;18.45;10.50;;;-1.10;99.90;;;;;;7351763;32;20499;-59
2022/03/07 04:49:20;;;;;;;21.55;10.20;;;-1.10;99.90;;;;;;7348946;32;20230;-59
2022/03/07 04:53:22;;;;;;;17.12;9.35;;;-1.00;99.90;;;;;;7352078;32;20103;-58
2022/03/07 04:57:23;;;;;;;15.95;10.13;;;-1.10;99.90;;;;;;7354345;32;20230;-58
2022/03/07 05:01:25;;;;;;;15.82;10.18;;;-1.10;99.90;;;;;;7354497;32;20208;-59
2022/03/07 05:05:27;;;;;;;17.95;10.60;;;-1.00;99.90;;;;;;7360728;32;20679;-58
2022/03/07 05:09:29;;;;;;;18.23;10.68;;;-0.90;99.90;;;;;;7356997;32;20182;-59
2022/03/07 05:13:32;;;;;;;17.23;10.27;;;-0.90;99.90;;;;;;7357237;32;20106;-59
2022/03/07 05:17:41;;;;;;;19.05;10.25;;;-0.90;99.90;;;;;;7358079;32;20335;-59
2022/03/07 05:21:43;;;;;;;15.07;9.77;;;-0.90;99.90;;;;;;7360115;32;20172;-58
2022/03/07 05:25:44;;;;;;;16.67;10.70;;;-0.90;99.90;;;;;;7357243;32;20107;-58
2022/03/07 05:29:46;;;;;;;18.10;10.88;;;-0.80;99.90;;;;;;7360817;32;20229;-59
2022/03/07 05:33:48;;;;;;;18.60;10.50;;;-0.90;99.90;;;;;;7357764;32;20605;-58
2022/03/07 05:37:50;;;;;;;16.50;10.40;;;-0.80;99.90;;;;;;7362386;32;20756;-59
2022/03/07 05:41:52;;;;;;;18.37;10.65;;;-0.70;99.90;;;;;;7358229;32;20218;-60
2022/03/07 05:45:54;;;;;;;15.70;10.10;;;-0.80;99.90;;;;;;7358935;32;20710;-61
2022/03/07 05:49:56;;;;;;;15.93;10.13;;;-0.70;99.90;;;;;;7356413;32;20162;-60
2022/03/07 05:53:58;;;;;;;19.50;10.35;;;-0.70;99.90;;;;;;7357724;32;20130;-61
2022/03/07 05:58:00;;;;;;;15.93;9.93;;;-0.70;99.90;;;;;;7354577;32;20107;-61
2022/03/07 06:02:05;;;;;;;14.95;9.50;;;-0.90;99.90;;;;;;7357453;32;20107;-59
2022/03/07 06:06:07;;;;;;;18.23;10.73;;;-1.00;99.90;;;;;;7355287;32;20095;-60
2022/03/07 06:10:09;;;;;;;18.27;11.23;;;-1.10;99.90;;;;;;7354597;32;20139;-60
2022/03/07 06:14:11;;;;;;;23.23;11.25;;;-1.20;99.90;;;;;;7357610;32;20115;-60
2022/03/07 06:18:13;;;;;;;14.27;9.50;;;-1.20;99.90;;;;;;7357043;32;20179;-59
2022/03/07 06:22:15;;;;;;;15.50;9.90;;;-1.20;99.90;;;;;;7359327;32;20945;-59
2022/03/07 06:26:17;;;;;;;11.75;7.90;;;-1.20;99.90;;;;;;7356942;32;20176;-59
2022/03/07 06:30:19;;;;;;;11.40;6.20;;;-1.20;99.90;;;;;;7358243;32;20289;-60
2022/03/07 06:34:20;;;;;;;10.98;6.85;;;-1.10;99.90;;;;;;7354062;32;20129;-60
2022/03/07 06:38:22;;;;;;;16.12;7.57;;;-1.10;99.90;;;;;;7357527;32;20805;-60
2022/03/07 06:42:24;;;;;;;11.27;7.12;;;-1.10;99.90;;;;;;7354362;32;20147;-59
2022/03/07 06:46:28;;;;;;;11.95;5.53;;;-1.10;99.90;;;;;;7358454;32;20142;-60
2022/03/07 06:50:31;;;;;;;12.77;6.45;;;-1.00;99.90;;;;;;7363129;32;20234;-60
2022/03/07 06:54:32;;;;;;;15.32;8.60;;;-0.80;99.90;;;;;;7359771;32;20194;-60
2022/03/07 06:58:34;;;;;;;13.32;9.43;;;-0.80;99.90;;;;;;7352874;32;20208;-60
2022/03/07 07:02:36;;;;;;;15.20;9.48;;;-0.80;99.90;;;;;;7359221;32;20228;-60
2022/03/07 07:06:38;;;;;;;14.05;9.25;;;-0.70;99.90;;;;;;7362389;32;20703;-60
2022/03/07 07:10:40;;;;;;;15.13;7.37;;;-0.70;99.90;;;;;;7362979;32;20298;-61
2022/03/07 07:14:42;;;;;;;13.05;8.50;;;-0.50;99.90;;;;;;7366216;32;20194;-60
2022/03/07 07:18:44;;;;;;;13.80;8.45;;;-0.50;99.90;;;;;;7364466;32;20128;-61
2022/03/07 07:22:45;;;;;;;15.18;7.50;;;-0.40;99.90;;;;;;7363896;32;20195;-59
2022/03/07 07:26:47;;;;;;;11.27;7.28;;;-0.20;99.90;;;;;;7370563;32;20257;-60
2022/03/07 07:30:49;;;;;;;12.40;7.75;;;-0.10;99.90;;;;;;7359229;32;20225;-58
2022/03/07 07:34:51;;;;;;;9.48;5.70;;;0.20;99.90;;;;;;7362654;32;20128;-58
2022/03/07 07:38:52;;;;;;;8.90;5.70;;;0.20;99.90;;;;;;7354628;32;20268;-58
2022/03/07 07:42:54;;;;;;;8.65;5.20;;;0.40;99.90;;;;;;7358596;32;20190;-60
2022/03/07 07:46:56;;;;;;;6.75;4.43;;;0.50;99.90;;;;;;7360786;32;21914;-59
2022/03/07 07:50:58;;;;;;;4.32;3.62;;;0.70;99.90;;;;;;7357924;32;20115;-58
2022/03/07 07:54:59;;;;;;;5.45;2.92;;;0.80;99.90;;;;;;7360127;32;20595;-60
2022/03/07 07:59:01;;;;;;;6.62;2.58;;;1.00;99.90;;;;;;7363355;32;20103;-60
2022/03/07 08:03:03;;;;;;;5.18;2.70;;;1.10;99.90;;;;;;7355040;32;20243;-59
2022/03/07 08:07:05;;;;;;;5.35;2.28;;;1.20;99.90;;;;;;7356921;32;20100;-59
2022/03/07 08:11:06;;;;;;;7.00;2.40;;;1.30;99.90;;;;;;7359021;32;20124;-60
2022/03/07 08:15:12;;;;;;;2.78;2.17;;;1.30;99.90;;;;;;7358326;32;20305;-59
2022/03/07 08:19:15;;;;;;;9.40;2.90;;;1.30;99.90;;;;;;7362901;32;20121;-61
2022/03/07 08:23:17;;;;;;;6.43;2.40;;;1.40;99.90;;;;;;7366830;32;20444;-60
2022/03/07 08:27:18;;;;;;;5.90;2.40;;;1.40;99.90;;;;;;7361683;32;20868;-60
2022/03/07 08:31:20;;;;;;;2.90;2.10;;;1.50;99.90;;;;;;7355884;32;20111;-59
2022/03/07 08:35:23;;;;;;;6.32;2.33;;;1.70;99.90;;;;;;7356568;32;20115;-59
2022/03/07 08:39:25;;;;;;;2.92;2.15;;;1.80;99.90;;;;;;7359435;32;20501;-60
2022/03/07 08:43:27;;;;;;;2.75;2.08;;;1.90;99.90;;;;;;7351196;32;20103;-60
2022/03/07 08:47:29;;;;;;;6.18;2.30;;;1.90;99.90;;;;;;7367290;32;20805;-58
2022/03/07 08:51:31;;;;;;;7.30;2.17;;;2.00;99.90;;;;;;7356830;32;20718;-60
2022/03/07 08:55:33;;;;;;;5.45;2.15;;;2.10;99.90;;;;;;7363218;32;20786;-58
2022/03/07 08:59:35;;;;;;;6.35;2.80;;;2.20;99.90;;;;;;7360874;32;20122;-58
2022/03/07 09:03:36;;;;;;;4.15;2.28;;;2.60;99.90;;;;;;7357562;32;20256;-59
2022/03/07 09:07:38;;;;;;;4.85;2.20;;;3.20;99.90;;;;;;7361536;32;20115;-59
2022/03/07 09:11:40;;;;;;;4.30;2.20;;;4.00;99.90;;;;;;7361640;32;20106;-59
2022/03/07 09:15:45;;;;;;;3.20;1.83;;;4.50;99.90;;;;;;7361160;32;20103;-59
2022/03/07 09:19:47;;;;;;;2.75;1.83;;;5.00;99.90;;;;;;7361655;32;20174;-59
2022/03/07 09:23:48;;;;;;;4.12;2.08;;;5.80;98.40;;;;;;7364269;32;20847;-61
2022/03/07 09:27:50;;;;;;;5.82;2.03;;;6.10;93.70;;;;;;7356105;32;20137;-59
2022/03/07 09:31:52;;;;;;;3.87;2.15;;;6.50;92.00;;;;;;7358755;32;20106;-59
2022/03/07 09:35:55;;;;;;;3.10;2.05;;;6.80;94.70;;;;;;7355872;32;20207;-60
2022/03/07 09:39:57;;;;;;;3.83;2.10;;;7.30;82.70;;;;;;7362668;32;20838;-59
2022/03/07 09:43:58;;;;;;;4.10;2.40;;;6.60;83.60;;;;;;7355364;32;20103;-61
2022/03/07 09:48:01;;;;;;;4.65;2.20;;;5.90;88.90;;;;;;7360562;32;20501;-59
2022/03/07 09:52:03;;;;;;;4.68;2.05;;;6.50;90.90;;;;;;7360160;32;20099;-59
2022/03/07 09:56:05;;;;;;;3.95;1.87;;;7.70;86.50;;;;;;7362335;32;20131;-59
2022/03/07 10:00:08;;;;;;;2.90;1.85;;;9.20;72.60;;;;;;7358497;32;20210;-61
2022/03/07 10:04:12;;;;;;;4.07;2.22;;;9.70;67.70;;;;;;7359908;32;20564;-60
2022/03/07 10:08:26;;;;;;;5.00;2.12;;;9.60;62.50;;;;;;7363538;32;20138;-59
2022/03/07 10:12:28;;;;;;;3.42;2.00;;;10.10;61.20;;;;;;7365980;32;20123;-59
2022/03/07 10:16:38;;;;;;;4.25;2.80;;;9.10;61.20;;;;;;7356968;32;20103;-60
2022/03/07 10:20:50;;;;;;;4.87;3.17;;;10.20;60.10;;;;;;7361783;32;20205;-60
2022/03/07 10:25:05;;;;;;;4.15;2.50;;;10.90;59.10;;;;;;7357346;32;20321;-60
2022/03/07 10:29:07;;;;;;;3.03;2.58;;;11.20;57.90;;;;;;7352749;32;20190;-62
2022/03/07 10:33:29;;;;;;;4.70;2.20;;;11.90;55.30;;;;;;7360161;32;20332;-59
2022/03/07 10:37:39;;;;;;;3.45;2.25;;;9.80;56.70;;;;;;7356170;32;20648;-59
2022/03/07 10:41:44;;;;;;;3.12;2.12;;;10.20;58.10;;;;;;7358161;32;20127;-60
2022/03/07 10:45:51;;;;;;;4.05;2.45;;;9.70;59.30;;;;;;7357334;32;20268;-60
2022/03/07 10:49:57;;;;;;;4.00;1.87;;;8.60;58.50;;;;;;7354805;32;20696;-60
2022/03/07 10:54:11;;;;;;;4.25;2.42;;;7.60;64.70;;;;;;7364712;32;20675;-59
2022/03/07 10:58:13;;;;;;;3.22;2.00;;;6.90;70.00;;;;;;7361610;32;20477;-60
2022/03/07 11:02:17;;;;;;;7.00;2.30;;;6.10;72.40;;;;;;7361603;32;20541;-60
2022/03/07 11:06:20;;;;;;;6.45;2.30;;;5.70;76.80;;;;;;7366501;32;20194;-60
2022/03/07 11:10:23;;;;;;;4.47;2.30;;;5.40;78.80;;;;;;7356088;32;20214;-59
2022/03/07 11:14:27;;;;;;;5.40;2.10;;;5.30;83.80;;;;;;7354822;32;20500;-59
2022/03/07 11:18:31;;;;;;;8.40;2.67;;;5.50;84.10;;;;;;7365000;32;20212;-59
2022/03/07 11:22:33;;;;;;;3.78;2.15;;;5.60;82.40;;;;;;7364035;32;20127;-60
2022/03/07 11:26:35;;;;;;;3.17;2.12;;;5.60;85.30;;;;;;7358668;32;21090;-60
2022/03/07 11:30:42;;;;;;;5.30;2.42;;;5.50;83.90;;;;;;7363369;32;20138;-62
2022/03/07 11:34:58;;;;;;;4.07;2.12;;;5.60;87.90;;;;;;7365385;32;20175;-59
2022/03/07 11:39:02;;;;;;;5.53;2.20;;;5.80;85.40;;;;;;7366077;32;20202;-60
2022/03/07 11:43:07;;;;;;;3.85;2.05;;;6.00;81.20;;;;;;7362690;32;20138;-59
2022/03/07 11:47:20;;;;;;;4.03;2.35;;;6.70;78.90;;;;;;7367302;32;20308;-61
2022/03/07 11:51:24;;;;;;;2.75;2.20;;;7.40;72.90;;;;;;7362426;32;20857;-59
2022/03/07 11:55:27;;;;;;;4.18;2.40;;;7.70;70.40;;;;;;7360287;32;20126;-59
2022/03/07 11:59:30;;;;;;;2.80;2.08;;;7.50;71.20;;;;;;7357942;32;20240;-61
2022/03/07 12:03:34;;;;;;;4.28;2.40;;;8.40;69.50;;;;;;7352532;32;20570;-60
2022/03/07 12:07:36;;;;;;;4.10;2.28;;;8.40;65.90;;;;;;7359949;32;20491;-60
2022/03/07 12:11:39;;;;;;;8.75;2.17;;;8.60;64.30;;;;;;7359483;32;20142;-60
2022/03/07 12:15:49;;;;;;;4.07;2.30;;;9.00;63.40;;;;;;7363339;32;20197;-60
2022/03/07 12:19:56;;;;;;;4.85;2.03;;;9.20;59.90;;;;;;7362818;32;20103;-61
2022/03/07 12:23:58;;;;;;;3.50;2.05;;;10.30;59.80;;;;;;7361634;32;20534;-61
2022/03/07 12:28:00;;;;;;;2.17;1.62;;;9.90;57.20;;;;;;7363849;32;20876;-59
2022/03/07 12:32:04;;;;;;;3.25;2.15;;;9.80;56.90;;;;;;7360512;32;20135;-60
2022/03/07 12:36:09;;;;;;;3.30;1.73;;;9.40;56.70;;;;;;7355510;32;20553;-60
2022/03/07 12:40:12;;;;;;;2.92;1.95;;;9.50;57.90;;;;;;7361033;32;20728;-59
2022/03/07 12:44:13;;;;;;;5.32;2.22;;;9.80;57.80;;;;;;7360766;32;20281;-58
2022/03/07 12:48:15;;;;;;;4.07;2.30;;;9.60;57.30;;;;;;7354845;32;20132;-59
2022/03/07 12:52:33;;;;;;;3.83;1.83;;;8.90;57.30;;;;;;7358569;32;20225;-59
2022/03/07 12:56:35;;;;;;;3.12;2.00;;;8.70;58.50;;;;;;7358952;32;20298;-59
2022/03/07 13:00:37;;;;;;;2.92;2.10;;;8.90;58.50;;;;;;7356858;32;20311;-59
2022/03/07 13:04:39;;;;;;;3.00;1.98;;;8.70;58.40;;;;;;7357471;32;20484;-59
2022/03/07 13:08:57;;;;;;;2.50;2.20;;;8.80;58.70;;;;;;7361990;32;20126;-59
2022/03/07 13:13:04;;;;;;;5.82;1.95;;;9.00;59.20;;;;;;7356528;32;20981;-59
2022/03/07 13:17:17;;;;;;;4.57;2.00;;;9.50;59.50;;;;;;7356459;32;20104;-60
2022/03/07 13:21:19;;;;;;;2.90;1.73;;;10.10;56.80;;;;;;7351058;32;20099;-61
2022/03/07 13:25:21;;;;;;;2.30;1.70;;;10.10;54.40;;;;;;7351991;32;20111;-61
2022/03/07 13:29:24;;;;;;;4.45;2.12;;;10.30;54.20;;;;;;7357482;32;20132;-60
2022/03/07 13:33:35;;;;;;;4.32;2.05;;;10.30;55.00;;;;;;7355034;32;20113;-61
2022/03/07 13:37:45;;;;;;;5.10;3.45;;;10.10;55.50;;;;;;7361758;32;20104;-62
2022/03/07 13:41:57;;;;;;;2.50;1.80;;;10.10;55.50;;;;;;7355777;32;20122;-62
2022/03/07 13:45:58;;;;;;;2.90;1.90;;;11.20;54.90;;;;;;7358567;32;20110;-60
2022/03/07 13:50:15;;;;;;;5.12;1.80;;;11.00;53.10;;;;;;7365380;32;20095;-60
2022/03/07 13:54:17;;;;;;;2.70;1.70;;;11.20;52.20;;;;;;7355851;32;20126;-60
2022/03/07 13:58:25;;;;;;;3.45;1.58;;;11.30;53.20;;;;;;7363239;32;20125;-60
2022/03/07 14:02:30;;;;;;;3.92;1.90;;;11.70;53.40;;;;;;7361712;32;20549;-59
2022/03/07 14:06:32;;;;;;;5.80;2.50;;;12.10;51.20;;;;;;7356150;32;20206;-62
2022/03/07 14:10:34;;;;;;;3.08;1.77;;;12.60;48.70;;;;;;7359474;32;20107;-61
2022/03/07 14:14:36;;;;;;;3.80;1.95;;;12.70;49.20;;;;;;7356542;32;20131;-58
2022/03/07 14:18:38;;;;;;;2.67;1.87;;;11.90;49.60;;;;;;7358759;32;20230;-60
2022/03/07 14:22:47;;;;;;;4.53;2.10;;;11.30;50.60;;;;;;7358869;32;20441;-60
2022/03/07 14:26:49;;;;;;;4.85;2.42;;;10.90;51.30;;;;;;7360267;32;20225;-59
2022/03/07 14:30:51;;;;;;;4.25;1.95;;;11.30;53.50;;;;;;7355733;32;20135;-59
2022/03/07 14:34:54;;;;;;;3.67;2.35;;;11.50;53.20;;;;;;7354426;32;20122;-60
2022/03/07 14:38:56;;;;;;;2.87;1.95;;;11.50;53.20;;;;;;7352964;32;20172;-60
2022/03/07 14:42:58;;;;;;;5.18;2.25;;;11.70;52.70;;;;;;7356999;32;20115;-59
2022/03/07 14:47:00;;;;;;;2.55;2.03;;;11.30;53.90;;;;;;7356576;32;20254;-59
2022/03/07 14:51:03;;;;;;;4.68;2.83;;;11.40;54.20;;;;;;7354797;32;20129;-59
2022/03/07 14:55:09;;;;;;;8.40;2.97;;;10.20;55.10;;;;;;7359018;32;20111;-59
2022/03/07 14:59:30;;;;;;;5.18;2.40;;;9.50;59.00;;;;;;7356560;32;20190;-59
2022/03/07 15:03:32;;;;;;;5.82;2.40;;;8.60;62.20;;;;;;7354649;32;20138;-58
2022/03/07 15:07:34;;;;;;;4.20;2.40;;;8.40;64.10;;;;;;7357142;32;20466;-58
2022/03/07 15:11:38;;;;;;;4.53;2.50;;;8.20;66.60;;;;;;7366056;32;20214;-59
2022/03/07 15:15:41;;;;;;;5.93;2.70;;;8.00;66.90;;;;;;7364335;32;20133;-61
2022/03/07 15:19:45;;;;;;;3.90;2.37;;;7.80;68.80;;;;;;7364278;32;20125;-59
2022/03/07 15:23:46;;;;;;;4.28;2.75;;;7.70;69.80;;;;;;7363558;32;20224;-60
2022/03/07 15:27:48;;;;;;;4.05;2.65;;;7.60;71.90;;;;;;7362423;32;20815;-61
2022/03/07 15:31:50;;;;;;;4.93;2.72;;;7.60;72.20;;;;;;7360407;32;20122;-59
2022/03/07 15:35:51;;;;;;;8.00;2.67;;;7.60;72.10;;;;;;7362008;32;20821;-59
2022/03/07 15:39:54;;;;;;;3.28;2.45;;;7.60;72.00;;;;;;7367309;32;20234;-59
2022/03/07 15:43:56;;;;;;;4.12;2.50;;;7.50;72.50;;;;;;7358162;32;20099;-61
2022/03/07 15:47:58;;;;;;;4.68;2.47;;;7.50;72.60;;;;;;7358343;32;20297;-61
2022/03/07 15:51:59;;;;;;;3.50;2.70;;;7.50;72.90;;;;;;7351899;32;20212;-60
2022/03/07 15:56:02;;;;;;;4.25;2.45;;;7.30;75.30;;;;;;7360271;32;20107;-60
2022/03/07 16:00:05;;;;;;;4.20;2.80;;;7.30;72.90;;;;;;7357146;32;20194;-61
2022/03/07 16:04:09;;;;;;;3.55;2.58;;;7.20;72.80;;;;;;7354513;32;20103;-58
2022/03/07 16:08:12;;;;;;;3.25;2.20;;;7.10;75.20;;;;;;7354195;32;20197;-60
2022/03/07 16:12:13;;;;;;;5.47;2.78;;;7.10;75.40;;;;;;7357088;32;20956;-61
2022/03/07 16:16:17;;;;;;;6.95;2.47;;;7.10;76.10;;;;;;7348604;32;20169;-59
2022/03/07 16:20:19;;;;;;;4.40;2.42;;;6.90;77.00;;;;;;7360553;32;20626;-61
2022/03/07 16:24:22;;;;;;;7.07;3.08;;;6.80;76.80;;;;;;7350798;32;20334;-59
2022/03/07 16:28:25;;;;;;;4.65;2.78;;;6.70;79.20;;;;;;7358683;32;20652;-60
2022/03/07 16:32:26;;;;;;;5.22;2.80;;;6.70;79.40;;;;;;7356758;32;21046;-61
2022/03/07 16:36:28;;;;;;;6.00;3.00;;;6.70;79.40;;;;;;7359324;32;20134;-60
2022/03/07 16:40:30;;;;;;;5.57;2.72;;;6.60;80.10;;;;;;7355923;32;20206;-61
2022/03/07 16:44:32;;;;;;;4.25;3.03;;;6.40;81.70;;;;;;7355867;32;20161;-59
2022/03/07 16:48:35;;;;;;;4.50;2.85;;;6.30;83.20;;;;;;7362476;32;20111;-59
2022/03/07 16:52:37;;;;;;;4.35;2.75;;;6.20;85.50;;;;;;7356003;32;20271;-60
2022/03/07 16:56:39;;;;;;;4.60;2.62;;;6.10;86.90;;;;;;7367958;32;20726;-60
2022/03/07 17:00:40;;;;;;;3.97;2.72;;;6.10;88.00;;;;;;7357788;32;20237;-61
2022/03/07 17:04:42;;;;;;;6.30;2.90;;;6.00;88.60;;;;;;7355041;32;20282;-61
2022/03/07 17:08:45;;;;;;;5.18;3.00;;;5.80;90.20;;;;;;7364512;32;20186;-60
2022/03/07 17:12:46;;;;;;;6.62;2.92;;;5.70;91.20;;;;;;7360781;32;20131;-59
2022/03/07 17:16:48;;;;;;;4.43;3.12;;;5.70;91.10;;;;;;7356301;32;20189;-59
2022/03/07 17:20:50;;;;;;;5.65;3.10;;;5.60;91.60;;;;;;7352253;32;20260;-58
2022/03/07 17:24:52;;;;;;;4.93;3.00;;;5.60;91.80;;;;;;7352207;32;20225;-58
2022/03/07 17:28:55;;;;;;;7.28;3.22;;;5.50;92.40;;;;;;7358882;32;20133;-59
2022/03/07 17:32:57;;;;;;;5.18;3.15;;;5.30;93.20;;;;;;7362005;32;20111;-59
2022/03/07 17:36:59;;;;;;;5.43;2.90;;;5.20;94.50;;;;;;7358228;32;20251;-60
2022/03/07 17:41:01;;;;;;;5.25;2.92;;;5.10;94.90;;;;;;7356732;32;20591;-60
2022/03/07 17:45:04;;;;;;;8.00;3.87;;;5.10;95.00;;;;;;7361420;32;20198;-60
2022/03/07 17:49:06;;;;;;;7.47;3.25;;;4.90;96.10;;;;;;7357269;32;20495;-61
2022/03/07 17:53:08;;;;;;;3.78;2.72;;;4.80;97.30;;;;;;7361803;32;20600;-60
2022/03/07 17:57:11;;;;;;;4.05;2.70;;;4.60;98.40;;;;;;7359310;32;20519;-60
2022/03/07 18:01:13;;;;;;;4.85;3.17;;;4.60;99.80;;;;;;7360499;32;20190;-60
2022/03/07 18:05:15;;;;;;;4.35;3.22;;;4.50;99.90;;;;;;7359287;32;20201;-59
2022/03/07 18:09:17;;;;;;;7.87;4.10;;;4.50;99.90;;;;;;7360472;32;20229;-62
2022/03/07 18:13:18;;;;;;;7.85;3.72;;;4.50;99.90;;;;;;7358111;32;20103;-59
2022/03/07 18:17:20;;;;;;;5.80;2.97;;;4.50;99.90;;;;;;7359247;32;20176;-60
2022/03/07 18:21:22;;;;;;;7.00;3.37;;;4.50;99.90;;;;;;7359880;32;20099;-61
2022/03/07 18:25:24;;;;;;;4.20;3.17;;;4.40;99.90;;;;;;7363710;32;20190;-59
2022/03/07 18:29:26;;;;;;;7.20;4.70;;;4.40;99.90;;;;;;7356246;32;20925;-60
2022/03/07 18:33:28;;;;;;;4.78;3.33;;;4.40;99.90;;;;;;7352939;32;20128;-60
2022/03/07 18:37:30;;;;;;;5.35;3.37;;;4.30;99.90;;;;;;7356986;32;20125;-59
2022/03/07 18:41:32;;;;;;;6.65;3.47;;;4.30;99.90;;;;;;7359722;32;20223;-60
2022/03/07 18:45:34;;;;;;;5.32;3.20;;;4.20;99.90;;;;;;7367123;32;20137;-60
2022/03/07 18:49:36;;;;;;;6.45;3.50;;;4.10;99.90;;;;;;7360978;32;20102;-63
2022/03/07 18:53:38;;;;;;;7.43;4.12;;;4.00;99.90;;;;;;7356468;32;20220;-60
2022/03/07 18:57:40;;;;;;;5.28;2.85;;;4.00;99.90;;;;;;7360052;32;20130;-60
2022/03/07 19:01:41;;;;;;;5.28;3.12;;;4.10;99.90;;;;;;7351400;32;20224;-60
2022/03/07 19:05:43;;;;;;;4.15;2.90;;;4.10;99.90;;;;;;7361769;32;20631;-60
2022/03/07 19:09:45;;;;;;;5.82;3.50;;;4.00;99.90;;;;;;7359556;32;20125;-60
2022/03/07 19:13:47;;;;;;;8.13;3.22;;;4.00;99.90;;;;;;7361704;32;20119;-62
2022/03/07 19:17:52;;;;;;;4.05;2.87;;;4.00;99.90;;;;;;7362172;32;20549;-61
2022/03/07 19:21:53;;;;;;;6.55;3.33;;;3.90;99.90;;;;;;7359401;32;20694;-60
2022/03/07 19:25:55;;;;;;;8.23;3.15;;;3.80;99.90;;;;;;7360662;32;20273;-59
2022/03/07 19:29:57;;;;;;;4.03;3.08;;;3.70;99.90;;;;;;7363634;32;20564;-60
2022/03/07 19:33:59;;;;;;;12.55;6.07;;;3.50;99.90;;;;;;7366547;32;20129;-58
2022/03/07 19:38:01;;;;;;;5.75;3.92;;;3.50;99.90;;;;;;7369277;32;20207;-60
2022/03/07 19:42:03;;;;;;;6.90;3.40;;;3.30;99.90;;;;;;7367114;32;20233;-60
2022/03/07 19:46:05;;;;;;;6.68;3.72;;;3.00;99.90;;;;;;7362673;32;20118;-60
2022/03/07 19:50:07;;;;;;;6.07;3.28;;;2.90;99.90;;;;;;7363571;32;20777;-60
2022/03/07 19:54:10;;;;;;;7.97;3.75;;;2.60;99.90;;;;;;7361996;32;20176;-59
2022/03/07 19:58:11;;;;;;;5.43;3.30;;;2.30;99.90;;;;;;7362709;32;20873;-60
2022/03/07 20:02:13;;;;;;;7.12;3.92;;;1.90;99.90;;;;;;7363263;32;20111;-59
2022/03/07 20:06:15;;;;;;;6.22;4.15;;;1.60;99.90;;;;;;7369560;32;20179;-61
2022/03/07 20:10:17;;;;;;;10.95;3.92;;;1.30;99.90;;;;;;7360937;32;20568;-61
2022/03/07 20:14:20;;;;;;;7.85;4.15;;;1.20;99.90;;;;;;7359784;32;20289;-61
2022/03/07 20:18:24;;;;;;;5.85;3.83;;;1.00;99.90;;;;;;7367780;32;20222;-61
2022/03/07 20:22:26;;;;;;;9.13;4.40;;;0.80;99.90;;;;;;7356508;32;20163;-60
2022/03/07 20:26:27;;;;;;;7.05;3.97;;;0.60;99.90;;;;;;7365962;32;20111;-61
2022/03/07 20:30:29;;;;;;;6.00;3.72;;;0.50;99.90;;;;;;7362071;32;20178;-60
2022/03/07 20:34:32;;;;;;;6.43;4.12;;;0.30;99.90;;;;;;7367810;32;20218;-60
2022/03/07 20:38:33;;;;;;;7.68;3.72;;;0.20;99.90;;;;;;7361885;32;20510;-59
2022/03/07 20:42:35;;;;;;;5.97;4.22;;;0.10;99.90;;;;;;7363235;32;20129;-60
2022/03/07 20:46:37;;;;;;;7.18;3.95;;;0.00;99.90;;;;;;7362317;32;20215;-61
2022/03/07 20:50:39;;;;;;;9.10;4.45;;;-0.10;99.90;;;;;;7361375;32;20514;-60
2022/03/07 20:54:41;;;;;;;6.82;4.78;;;-0.10;99.90;;;;;;7353743;32;20204;-60
2022/03/07 20:58:43;;;;;;;6.70;4.70;;;-0.20;99.90;;;;;;7356331;32;20206;-60
2022/03/07 21:02:46;;;;;;;6.72;4.32;;;-0.30;99.90;;;;;;7352851;32;20197;-60
2022/03/07 21:06:49;;;;;;;10.95;4.78;;;-0.40;99.90;;;;;;7361944;32;20761;-59